sensor_id;sensor_type;location;lat;lon;timestamp;temperature;humidity
48208;DHT22;33997;53.278;9.708;2023-02-04T00:01:37;1.90;98.60
48208;DHT22;33997;53.278;9.708;2023-02-04T00:04:03;1.80;98.60
48208;DHT22;33997;53.278;9.708;2023-02-04T00:06:28;1.80;98.60
48208;DHT22;33997;53.278;9.708;2023-02-04T00:08:54;1.70;98.50
48208;DHT22;33997;53.278;9.708;2023-02-04T00:11:19;1.60;98.50
48208;DHT22;33997;53.278;9.708;2023-02-04T00:13:45;1.50;98.50
48208;DHT22;33997;53.278;9.708;2023-02-04T00:16:10;1.40;98.50
48208;DHT22;33997;53.278;9.708;2023-02-04T00:18:36;1.30;98.50
48208;DHT22;33997;53.278;9.708;2023-02-04T00:21:01;1.30;98.60
48208;DHT22;33997;53.278;9.708;2023-02-04T00:23:27;1.20;98.70
48208;DHT22;33997;53.278;9.708;2023-02-04T00:25:52;1.10;98.60
48208;DHT22;33997;53.278;9.708;2023-02-04T00:28:18;1.10;98.70
48208;DHT22;33997;53.278;9.708;2023-02-04T00:30:43;1.00;98.70
48208;DHT22;33997;53.278;9.708;2023-02-04T00:33:09;1.00;98.80
48208;DHT22;33997;53.278;9.708;2023-02-04T00:35:34;0.90;98.80
48208;DHT22;33997;53.278;9.708;2023-02-04T00:38:02;0.80;98.80
48208;DHT22;33997;53.278;9.708;2023-02-04T00:40:27;0.80;98.80
48208;DHT22;33997;53.278;9.708;2023-02-04T00:42:52;0.70;98.90
48208;DHT22;33997;53.278;9.708;2023-02-04T00:45:18;0.70;98.90
48208;DHT22;33997;53.278;9.708;2023-02-04T00:47:43;0.70;99.00
48208;DHT22;33997;53.278;9.708;2023-02-04T00:50:09;0.50;99.00
48208;DHT22;33997;53.278;9.708;2023-02-04T00:52:34;0.60;99.10
48208;DHT22;33997;53.278;9.708;2023-02-04T00:55:00;0.60;99.00
48208;DHT22;33997;53.278;9.708;2023-02-04T00:57:25;0.40;99.00
48208;DHT22;33997;53.278;9.708;2023-02-04T00:59:51;0.40;99.10
48208;DHT22;33997;53.278;9.708;2023-02-04T01:02:16;0.30;99.10
48208;DHT22;33997;53.278;9.708;2023-02-04T01:04:42;0.30;99.20
48208;DHT22;33997;53.278;9.708;2023-02-04T01:07:07;0.30;99.20
48208;DHT22;33997;53.278;9.708;2023-02-04T01:09:32;0.40;99.40
48208;DHT22;33997;53.278;9.708;2023-02-04T01:11:58;0.50;99.40
48208;DHT22;33997;53.278;9.708;2023-02-04T01:14:24;0.60;99.40
48208;DHT22;33997;53.278;9.708;2023-02-04T01:16:49;0.70;99.40
48208;DHT22;33997;53.278;9.708;2023-02-04T01:19:14;0.70;99.40
48208;DHT22;33997;53.278;9.708;2023-02-04T01:21:40;0.80;99.40
48208;DHT22;33997;53.278;9.708;2023-02-04T01:24:05;0.80;99.40
48208;DHT22;33997;53.278;9.708;2023-02-04T01:26:31;0.70;99.50
48208;DHT22;33997;53.278;9.708;2023-02-04T01:28:56;0.70;99.50
48208;DHT22;33997;53.278;9.708;2023-02-04T01:31:22;0.60;99.40
48208;DHT22;33997;53.278;9.708;2023-02-04T01:33:47;0.50;99.40
48208;DHT22;33997;53.278;9.708;2023-02-04T01:36:13;0.40;99.40
48208;DHT22;33997;53.278;9.708;2023-02-04T01:38:39;0.40;99.40
48208;DHT22;33997;53.278;9.708;2023-02-04T01:41:05;0.30;99.40
48208;DHT22;33997;53.278;9.708;2023-02-04T01:43:31;0.30;99.50
48208;DHT22;33997;53.278;9.708;2023-02-04T01:45:57;0.20;99.50
48208;DHT22;33997;53.278;9.708;2023-02-04T01:48:23;0.20;99.50
48208;DHT22;33997;53.278;9.708;2023-02-04T01:50:51;0.10;99.50
48208;DHT22;33997;53.278;9.708;2023-02-04T01:53:20;0.10;99.50
48208;DHT22;33997;53.278;9.708;2023-02-04T01:55:46;0.00;99.50
48208;DHT22;33997;53.278;9.708;2023-02-04T01:58:12;0.00;99.60
48208;DHT22;33997;53.278;9.708;2023-02-04T02:00:38;0.00;99.60
48208;DHT22;33997;53.278;9.708;2023-02-04T02:03:04;0.00;99.60
48208;DHT22;33997;53.278;9.708;2023-02-04T02:05:43;0.00;99.60
48208;DHT22;33997;53.278;9.708;2023-02-04T02:08:09;0.00;99.70
48208;DHT22;33997;53.278;9.708;2023-02-04T02:10:37;0.00;99.70
48208;DHT22;33997;53.278;9.708;2023-02-04T02:13:07;0.10;99.70
48208;DHT22;33997;53.278;9.708;2023-02-04T02:15:34;0.00;99.70
48208;DHT22;33997;53.278;9.708;2023-02-04T02:17:59;0.10;99.80
48208;DHT22;33997;53.278;9.708;2023-02-04T02:20:25;0.10;99.80
48208;DHT22;33997;53.278;9.708;2023-02-04T02:23:01;0.20;99.80
48208;DHT22;33997;53.278;9.708;2023-02-04T02:25:28;0.30;99.80
48208;DHT22;33997;53.278;9.708;2023-02-04T02:27:54;0.30;99.80
48208;DHT22;33997;53.278;9.708;2023-02-04T02:30:20;0.50;99.90
48208;DHT22;33997;53.278;9.708;2023-02-04T02:32:46;0.50;99.90
48208;DHT22;33997;53.278;9.708;2023-02-04T02:35:13;0.50;99.80
48208;DHT22;33997;53.278;9.708;2023-02-04T02:37:39;0.40;99.70
48208;DHT22;33997;53.278;9.708;2023-02-04T02:40:05;0.30;99.70
48208;DHT22;33997;53.278;9.708;2023-02-04T02:42:31;0.10;99.70
48208;DHT22;33997;53.278;9.708;2023-02-04T02:44:57;0.10;99.70
48208;DHT22;33997;53.278;9.708;2023-02-04T02:47:23;0.00;99.70
48208;DHT22;33997;53.278;9.708;2023-02-04T02:49:51;0.00;99.70
48208;DHT22;33997;53.278;9.708;2023-02-04T02:52:18;0.00;99.80
48208;DHT22;33997;53.278;9.708;2023-02-04T02:54:43;-3276.70;99.90
48208;DHT22;33997;53.278;9.708;2023-02-04T02:57:20;-3276.70;99.80
48208;DHT22;33997;53.278;9.708;2023-02-04T02:59:47;-3276.60;99.80
48208;DHT22;33997;53.278;9.708;2023-02-04T03:02:15;-3276.60;99.90
48208;DHT22;33997;53.278;9.708;2023-02-04T03:04:48;-3276.70;99.90
48208;DHT22;33997;53.278;9.708;2023-02-04T03:07:16;0.00;99.90
48208;DHT22;33997;53.278;9.708;2023-02-04T03:09:42;0.00;99.90
48208;DHT22;33997;53.278;9.708;2023-02-04T03:12:08;0.10;99.90
48208;DHT22;33997;53.278;9.708;2023-02-04T03:14:34;0.20;99.90
48208;DHT22;33997;53.278;9.708;2023-02-04T03:17:01;0.30;99.90
48208;DHT22;33997;53.278;9.708;2023-02-04T03:19:27;0.30;99.90
48208;DHT22;33997;53.278;9.708;2023-02-04T03:21:53;0.30;99.90
48208;DHT22;33997;53.278;9.708;2023-02-04T03:24:20;0.30;99.90
48208;DHT22;33997;53.278;9.708;2023-02-04T03:26:46;0.40;99.90
48208;DHT22;33997;53.278;9.708;2023-02-04T03:29:11;0.40;99.90
48208;DHT22;33997;53.278;9.708;2023-02-04T03:31:37;0.50;99.90
48208;DHT22;33997;53.278;9.708;2023-02-04T03:34:03;0.50;99.90
48208;DHT22;33997;53.278;9.708;2023-02-04T03:36:29;0.50;99.90
48208;DHT22;33997;53.278;9.708;2023-02-04T03:38:54;0.50;99.90
48208;DHT22;33997;53.278;9.708;2023-02-04T03:41:20;0.60;99.90
48208;DHT22;33997;53.278;9.708;2023-02-04T03:43:46;0.60;99.90
48208;DHT22;33997;53.278;9.708;2023-02-04T03:46:11;0.50;99.90
48208;DHT22;33997;53.278;9.708;2023-02-04T03:48:37;0.50;99.90
48208;DHT22;33997;53.278;9.708;2023-02-04T03:51:02;0.50;99.90
48208;DHT22;33997;53.278;9.708;2023-02-04T03:53:28;0.50;99.90
48208;DHT22;33997;53.278;9.708;2023-02-04T03:55:53;0.50;99.90
48208;DHT22;33997;53.278;9.708;2023-02-04T03:58:19;0.50;99.90
48208;DHT22;33997;53.278;9.708;2023-02-04T04:00:45;0.60;99.90
48208;DHT22;33997;53.278;9.708;2023-02-04T04:03:10;0.60;99.90
48208;DHT22;33997;53.278;9.708;2023-02-04T04:05:36;0.70;99.90
48208;DHT22;33997;53.278;9.708;2023-02-04T04:08:01;0.70;99.90
48208;DHT22;33997;53.278;9.708;2023-02-04T04:10:27;0.70;99.90
48208;DHT22;33997;53.278;9.708;2023-02-04T04:12:53;0.70;99.90
48208;DHT22;33997;53.278;9.708;2023-02-04T04:15:19;0.70;99.90
48208;DHT22;33997;53.278;9.708;2023-02-04T04:17:44;0.60;99.90
48208;DHT22;33997;53.278;9.708;2023-02-04T04:20:10;0.60;99.90
48208;DHT22;33997;53.278;9.708;2023-02-04T04:22:36;0.70;99.90
48208;DHT22;33997;53.278;9.708;2023-02-04T04:25:01;0.70;99.90
48208;DHT22;33997;53.278;9.708;2023-02-04T04:27:26;0.70;99.90
48208;DHT22;33997;53.278;9.708;2023-02-04T04:29:53;0.70;99.90
48208;DHT22;33997;53.278;9.708;2023-02-04T04:32:19;0.70;99.90
48208;DHT22;33997;53.278;9.708;2023-02-04T04:34:44;0.70;99.90
48208;DHT22;33997;53.278;9.708;2023-02-04T04:37:10;0.50;99.90
48208;DHT22;33997;53.278;9.708;2023-02-04T04:39:35;0.40;99.90
48208;DHT22;33997;53.278;9.708;2023-02-04T04:42:01;0.30;99.90
48208;DHT22;33997;53.278;9.708;2023-02-04T04:44:26;0.30;99.90
48208;DHT22;33997;53.278;9.708;2023-02-04T04:46:52;0.10;99.90
48208;DHT22;33997;53.278;9.708;2023-02-04T04:49:17;0.10;99.90
48208;DHT22;33997;53.278;9.708;2023-02-04T04:51:43;0.10;99.90
48208;DHT22;33997;53.278;9.708;2023-02-04T04:54:08;0.10;99.90
48208;DHT22;33997;53.278;9.708;2023-02-04T04:56:34;0.10;99.90
48208;DHT22;33997;53.278;9.708;2023-02-04T04:58:59;0.10;99.90
48208;DHT22;33997;53.278;9.708;2023-02-04T05:01:24;0.00;99.90
48208;DHT22;33997;53.278;9.708;2023-02-04T05:03:50;0.00;99.90
48208;DHT22;33997;53.278;9.708;2023-02-04T05:06:15;0.00;99.90
48208;DHT22;33997;53.278;9.708;2023-02-04T05:08:41;0.00;99.90
48208;DHT22;33997;53.278;9.708;2023-02-04T05:11:07;0.00;99.90
48208;DHT22;33997;53.278;9.708;2023-02-04T05:13:32;0.00;99.90
48208;DHT22;33997;53.278;9.708;2023-02-04T05:15:57;0.00;99.90
48208;DHT22;33997;53.278;9.708;2023-02-04T05:18:23;0.00;99.90
48208;DHT22;33997;53.278;9.708;2023-02-04T05:20:48;0.00;99.90
48208;DHT22;33997;53.278;9.708;2023-02-04T05:23:14;0.10;99.90
48208;DHT22;33997;53.278;9.708;2023-02-04T05:25:41;0.10;99.90
48208;DHT22;33997;53.278;9.708;2023-02-04T05:28:06;0.20;99.90
48208;DHT22;33997;53.278;9.708;2023-02-04T05:30:32;0.20;99.90
48208;DHT22;33997;53.278;9.708;2023-02-04T05:32:57;0.30;99.90
48208;DHT22;33997;53.278;9.708;2023-02-04T05:35:23;0.30;99.90
48208;DHT22;33997;53.278;9.708;2023-02-04T05:37:48;0.40;99.90
48208;DHT22;33997;53.278;9.708;2023-02-04T05:40:14;0.40;99.90
48208;DHT22;33997;53.278;9.708;2023-02-04T05:42:39;0.40;99.90
48208;DHT22;33997;53.278;9.708;2023-02-04T05:45:06;0.50;99.90
48208;DHT22;33997;53.278;9.708;2023-02-04T05:47:32;0.50;99.90
48208;DHT22;33997;53.278;9.708;2023-02-04T05:49:57;0.60;99.90
48208;DHT22;33997;53.278;9.708;2023-02-04T05:52:23;0.60;99.90
48208;DHT22;33997;53.278;9.708;2023-02-04T05:54:48;0.70;99.90
48208;DHT22;33997;53.278;9.708;2023-02-04T05:57:14;0.70;99.90
48208;DHT22;33997;53.278;9.708;2023-02-04T05:59:39;0.70;99.90
48208;DHT22;33997;53.278;9.708;2023-02-04T06:02:05;0.70;99.90
48208;DHT22;33997;53.278;9.708;2023-02-04T06:04:30;0.70;99.90
48208;DHT22;33997;53.278;9.708;2023-02-04T06:06:55;0.70;99.90
48208;DHT22;33997;53.278;9.708;2023-02-04T06:09:21;0.70;99.90
48208;DHT22;33997;53.278;9.708;2023-02-04T06:11:46;0.60;99.90
48208;DHT22;33997;53.278;9.708;2023-02-04T06:14:12;0.60;99.90
48208;DHT22;33997;53.278;9.708;2023-02-04T06:16:37;0.50;99.90
48208;DHT22;33997;53.278;9.708;2023-02-04T06:19:03;0.40;99.90
48208;DHT22;33997;53.278;9.708;2023-02-04T06:21:28;0.30;99.90
48208;DHT22;33997;53.278;9.708;2023-02-04T06:23:54;0.20;99.90
48208;DHT22;33997;53.278;9.708;2023-02-04T06:26:19;0.10;99.90
48208;DHT22;33997;53.278;9.708;2023-02-04T06:28:45;0.00;99.90
48208;DHT22;33997;53.278;9.708;2023-02-04T06:31:10;0.00;99.90
48208;DHT22;33997;53.278;9.708;2023-02-04T06:33:36;0.00;99.90
48208;DHT22;33997;53.278;9.708;2023-02-04T06:36:02;-3276.70;99.90
48208;DHT22;33997;53.278;9.708;2023-02-04T06:38:28;-3276.60;99.90
48208;DHT22;33997;53.278;9.708;2023-02-04T06:40:54;-3276.50;99.90
48208;DHT22;33997;53.278;9.708;2023-02-04T06:43:20;-3276.50;99.90
48208;DHT22;33997;53.278;9.708;2023-02-04T06:45:46;-3276.50;99.90
48208;DHT22;33997;53.278;9.708;2023-02-04T06:48:12;-3276.40;99.90
48208;DHT22;33997;53.278;9.708;2023-02-04T06:50:37;-3276.40;99.90
48208;DHT22;33997;53.278;9.708;2023-02-04T06:53:06;-3276.40;99.90
48208;DHT22;33997;53.278;9.708;2023-02-04T06:55:31;-3276.40;99.90
48208;DHT22;33997;53.278;9.708;2023-02-04T06:57:57;-3276.40;99.90
48208;DHT22;33997;53.278;9.708;2023-02-04T07:00:22;-3276.40;99.90
48208;DHT22;33997;53.278;9.708;2023-02-04T07:02:47;-3276.40;99.90
48208;DHT22;33997;53.278;9.708;2023-02-04T07:05:13;-3276.50;99.90
48208;DHT22;33997;53.278;9.708;2023-02-04T07:07:39;-3276.50;99.90
48208;DHT22;33997;53.278;9.708;2023-02-04T07:10:04;-3276.60;99.90
48208;DHT22;33997;53.278;9.708;2023-02-04T07:12:30;-3276.60;99.90
48208;DHT22;33997;53.278;9.708;2023-02-04T07:14:55;-3276.70;99.90
48208;DHT22;33997;53.278;9.708;2023-02-04T07:17:22;-3276.70;99.90
48208;DHT22;33997;53.278;9.708;2023-02-04T07:19:47;-3276.70;99.90
48208;DHT22;33997;53.278;9.708;2023-02-04T07:22:12;-3276.70;99.90
48208;DHT22;33997;53.278;9.708;2023-02-04T07:24:38;0.00;99.90
48208;DHT22;33997;53.278;9.708;2023-02-04T07:27:03;0.00;99.90
48208;DHT22;33997;53.278;9.708;2023-02-04T07:29:29;0.00;99.90
48208;DHT22;33997;53.278;9.708;2023-02-04T07:31:54;0.00;99.90
48208;DHT22;33997;53.278;9.708;2023-02-04T07:34:20;0.00;99.90
48208;DHT22;33997;53.278;9.708;2023-02-04T07:36:45;0.00;99.90
48208;DHT22;33997;53.278;9.708;2023-02-04T07:39:11;0.10;99.90
48208;DHT22;33997;53.278;9.708;2023-02-04T07:41:36;0.10;99.90
48208;DHT22;33997;53.278;9.708;2023-02-04T07:44:02;0.10;99.90
48208;DHT22;33997;53.278;9.708;2023-02-04T07:46:28;0.10;99.90
48208;DHT22;33997;53.278;9.708;2023-02-04T07:48:53;0.20;99.90
48208;DHT22;33997;53.278;9.708;2023-02-04T07:51:19;0.20;99.90
48208;DHT22;33997;53.278;9.708;2023-02-04T07:53:44;0.30;99.90
48208;DHT22;33997;53.278;9.708;2023-02-04T07:56:10;0.30;99.90
48208;DHT22;33997;53.278;9.708;2023-02-04T07:58:35;0.50;99.90
48208;DHT22;33997;53.278;9.708;2023-02-04T08:01:01;0.60;99.90
48208;DHT22;33997;53.278;9.708;2023-02-04T08:03:26;0.70;99.90
48208;DHT22;33997;53.278;9.708;2023-02-04T08:05:52;0.80;99.90
48208;DHT22;33997;53.278;9.708;2023-02-04T08:08:18;0.90;99.90
48208;DHT22;33997;53.278;9.708;2023-02-04T08:10:43;0.90;99.90
48208;DHT22;33997;53.278;9.708;2023-02-04T08:13:09;1.00;99.90
48208;DHT22;33997;53.278;9.708;2023-02-04T08:15:34;1.10;99.90
48208;DHT22;33997;53.278;9.708;2023-02-04T08:18:00;1.30;99.90
48208;DHT22;33997;53.278;9.708;2023-02-04T08:20:25;1.40;99.90
48208;DHT22;33997;53.278;9.708;2023-02-04T08:22:51;1.40;99.90
48208;DHT22;33997;53.278;9.708;2023-02-04T08:25:16;1.50;99.90
48208;DHT22;33997;53.278;9.708;2023-02-04T08:27:42;1.50;99.90
48208;DHT22;33997;53.278;9.708;2023-02-04T08:30:07;1.40;99.90
48208;DHT22;33997;53.278;9.708;2023-02-04T08:32:33;1.40;99.90
48208;DHT22;33997;53.278;9.708;2023-02-04T08:34:59;1.30;99.90
48208;DHT22;33997;53.278;9.708;2023-02-04T08:37:25;1.20;99.90
48208;DHT22;33997;53.278;9.708;2023-02-04T08:39:50;1.20;99.90
48208;DHT22;33997;53.278;9.708;2023-02-04T08:42:16;1.20;99.90
48208;DHT22;33997;53.278;9.708;2023-02-04T08:44:42;1.20;99.90
48208;DHT22;33997;53.278;9.708;2023-02-04T08:47:08;1.40;99.90
48208;DHT22;33997;53.278;9.708;2023-02-04T08:49:34;1.70;99.90
48208;DHT22;33997;53.278;9.708;2023-02-04T08:52:00;1.80;99.90
48208;DHT22;33997;53.278;9.708;2023-02-04T08:54:27;1.90;99.90
48208;DHT22;33997;53.278;9.708;2023-02-04T08:56:53;2.10;99.90
48208;DHT22;33997;53.278;9.708;2023-02-04T08:59:18;2.20;99.90
48208;DHT22;33997;53.278;9.708;2023-02-04T09:01:45;2.40;99.90
48208;DHT22;33997;53.278;9.708;2023-02-04T09:04:13;2.40;99.90
48208;DHT22;33997;53.278;9.708;2023-02-04T09:06:39;2.40;99.70
48208;DHT22;33997;53.278;9.708;2023-02-04T09:09:04;2.60;99.70
48208;DHT22;33997;53.278;9.708;2023-02-04T09:11:30;2.50;99.50
48208;DHT22;33997;53.278;9.708;2023-02-04T09:13:55;2.40;99.20
48208;DHT22;33997;53.278;9.708;2023-02-04T09:16:21;2.40;98.90
48208;DHT22;33997;53.278;9.708;2023-02-04T09:18:47;2.40;99.00
48208;DHT22;33997;53.278;9.708;2023-02-04T09:21:12;2.60;99.00
48208;DHT22;33997;53.278;9.708;2023-02-04T09:23:38;2.80;98.90
48208;DHT22;33997;53.278;9.708;2023-02-04T09:26:03;2.90;98.40
48208;DHT22;33997;53.278;9.708;2023-02-04T09:28:30;3.00;98.10
48208;DHT22;33997;53.278;9.708;2023-02-04T09:30:56;3.20;97.90
48208;DHT22;33997;53.278;9.708;2023-02-04T09:33:22;3.20;97.40
48208;DHT22;33997;53.278;9.708;2023-02-04T09:35:48;3.30;96.80
48208;DHT22;33997;53.278;9.708;2023-02-04T09:38:14;3.50;96.40
48208;DHT22;33997;53.278;9.708;2023-02-04T09:40:42;3.40;94.40
48208;DHT22;33997;53.278;9.708;2023-02-04T09:43:13;3.40;93.40
48208;DHT22;33997;53.278;9.708;2023-02-04T09:45:40;3.60;93.60
48208;DHT22;33997;53.278;9.708;2023-02-04T09:48:06;3.60;93.10
48208;DHT22;33997;53.278;9.708;2023-02-04T09:50:33;3.70;92.10
48208;DHT22;33997;53.278;9.708;2023-02-04T09:53:02;3.90;93.20
48208;DHT22;33997;53.278;9.708;2023-02-04T09:55:34;4.20;93.10
48208;DHT22;33997;53.278;9.708;2023-02-04T09:58:02;4.10;91.80
48208;DHT22;33997;53.278;9.708;2023-02-04T10:00:30;4.30;92.10
48208;DHT22;33997;53.278;9.708;2023-02-04T10:02:59;4.20;90.90
48208;DHT22;33997;53.278;9.708;2023-02-04T10:05:29;4.50;91.90
48208;DHT22;33997;53.278;9.708;2023-02-04T10:07:55;4.50;90.50
48208;DHT22;33997;53.278;9.708;2023-02-04T10:10:23;4.70;91.30
48208;DHT22;33997;53.278;9.708;2023-02-04T10:12:54;4.80;90.20
48208;DHT22;33997;53.278;9.708;2023-02-04T10:15:20;4.80;89.90
48208;DHT22;33997;53.278;9.708;2023-02-04T10:17:48;4.80;88.10
48208;DHT22;33997;53.278;9.708;2023-02-04T10:20:17;5.00;88.20
48208;DHT22;33997;53.278;9.708;2023-02-04T10:22:44;5.00;86.70
48208;DHT22;33997;53.278;9.708;2023-02-04T10:25:15;5.40;88.60
48208;DHT22;33997;53.278;9.708;2023-02-04T10:27:55;5.50;87.50
48208;DHT22;33997;53.278;9.708;2023-02-04T10:30:26;5.80;87.90
48208;DHT22;33997;53.278;9.708;2023-02-04T10:32:53;5.80;86.50
48208;DHT22;33997;53.278;9.708;2023-02-04T10:35:20;6.00;86.50
48208;DHT22;33997;53.278;9.708;2023-02-04T10:37:46;6.00;84.50
48208;DHT22;33997;53.278;9.708;2023-02-04T10:40:30;6.00;84.30
48208;DHT22;33997;53.278;9.708;2023-02-04T10:42:56;6.10;85.80
48208;DHT22;33997;53.278;9.708;2023-02-04T10:45:25;6.00;82.60
48208;DHT22;33997;53.278;9.708;2023-02-04T10:47:52;6.00;84.40
48208;DHT22;33997;53.278;9.708;2023-02-04T10:50:20;5.80;84.10
48208;DHT22;33997;53.278;9.708;2023-02-04T10:52:48;5.80;84.10
48208;DHT22;33997;53.278;9.708;2023-02-04T10:55:16;5.60;83.20
48208;DHT22;33997;53.278;9.708;2023-02-04T10:57:43;5.70;84.20
48208;DHT22;33997;53.278;9.708;2023-02-04T11:00:18;5.60;82.30
48208;DHT22;33997;53.278;9.708;2023-02-04T11:03:01;5.60;82.40
48208;DHT22;33997;53.278;9.708;2023-02-04T11:05:33;5.30;79.70
48208;DHT22;33997;53.278;9.708;2023-02-04T11:07:59;5.50;83.60
48208;DHT22;33997;53.278;9.708;2023-02-04T11:10:29;5.60;84.50
48208;DHT22;33997;53.278;9.708;2023-02-04T11:20:38;5.80;83.00
48208;DHT22;33997;53.278;9.708;2023-02-04T11:26:14;5.40;81.20
48208;DHT22;33997;53.278;9.708;2023-02-04T11:33:50;5.40;81.90
48208;DHT22;33997;53.278;9.708;2023-02-04T11:36:26;5.50;82.60
48208;DHT22;33997;53.278;9.708;2023-02-04T11:38:52;5.60;83.10
48208;DHT22;33997;53.278;9.708;2023-02-04T11:41:28;5.60;80.40
48208;DHT22;33997;53.278;9.708;2023-02-04T11:43:56;5.70;81.90
48208;DHT22;33997;53.278;9.708;2023-02-04T11:46:22;5.90;79.80
48208;DHT22;33997;53.278;9.708;2023-02-04T11:48:54;5.70;77.70
48208;DHT22;33997;53.278;9.708;2023-02-04T11:51:25;5.80;79.50
48208;DHT22;33997;53.278;9.708;2023-02-04T11:53:52;5.90;78.60
48208;DHT22;33997;53.278;9.708;2023-02-04T11:56:19;5.90;77.90
48208;DHT22;33997;53.278;9.708;2023-02-04T11:58:45;5.80;78.60
48208;DHT22;33997;53.278;9.708;2023-02-04T12:01:23;6.00;79.00
48208;DHT22;33997;53.278;9.708;2023-02-04T12:03:57;5.90;78.00
48208;DHT22;33997;53.278;9.708;2023-02-04T12:06:29;5.90;78.00
48208;DHT22;33997;53.278;9.708;2023-02-04T12:09:22;6.00;77.50
48208;DHT22;33997;53.278;9.708;2023-02-04T12:11:56;5.80;76.30
48208;DHT22;33997;53.278;9.708;2023-02-04T12:14:34;6.40;79.30
48208;DHT22;33997;53.278;9.708;2023-02-04T12:17:14;6.70;76.20
48208;DHT22;33997;53.278;9.708;2023-02-04T12:19:40;6.60;77.00
48208;DHT22;33997;53.278;9.708;2023-02-04T12:22:05;6.70;76.80
48208;DHT22;33997;53.278;9.708;2023-02-04T12:24:30;6.60;75.90
48208;DHT22;33997;53.278;9.708;2023-02-04T12:26:56;6.40;74.30
48208;DHT22;33997;53.278;9.708;2023-02-04T12:29:21;6.90;77.80
48208;DHT22;33997;53.278;9.708;2023-02-04T12:31:47;7.10;74.80
48208;DHT22;33997;53.278;9.708;2023-02-04T12:34:12;7.30;74.50
48208;DHT22;33997;53.278;9.708;2023-02-04T12:36:38;7.00;69.10
48208;DHT22;33997;53.278;9.708;2023-02-04T12:39:03;7.20;73.30
48208;DHT22;33997;53.278;9.708;2023-02-04T12:41:29;7.10;73.40
48208;DHT22;33997;53.278;9.708;2023-02-04T12:43:54;7.10;70.80
48208;DHT22;33997;53.278;9.708;2023-02-04T12:46:20;7.50;73.10
48208;DHT22;33997;53.278;9.708;2023-02-04T12:48:45;7.40;70.20
48208;DHT22;33997;53.278;9.708;2023-02-04T12:51:11;7.90;71.90
48208;DHT22;33997;53.278;9.708;2023-02-04T12:53:36;7.80;70.90
48208;DHT22;33997;53.278;9.708;2023-02-04T12:56:02;7.60;68.70
48208;DHT22;33997;53.278;9.708;2023-02-04T12:58:27;7.50;72.70
48208;DHT22;33997;53.278;9.708;2023-02-04T13:00:53;7.10;68.90
48208;DHT22;33997;53.278;9.708;2023-02-04T13:03:18;6.90;71.70
48208;DHT22;33997;53.278;9.708;2023-02-04T13:05:44;6.90;71.60
48208;DHT22;33997;53.278;9.708;2023-02-04T13:08:09;6.70;71.70
48208;DHT22;33997;53.278;9.708;2023-02-04T13:10:35;6.90;73.50
48208;DHT22;33997;53.278;9.708;2023-02-04T13:13:01;7.00;75.70
48208;DHT22;33997;53.278;9.708;2023-02-04T13:15:26;7.00;74.60
48208;DHT22;33997;53.278;9.708;2023-02-04T13:17:52;7.00;75.50
48208;DHT22;33997;53.278;9.708;2023-02-04T13:20:18;6.70;74.00
48208;DHT22;33997;53.278;9.708;2023-02-04T13:22:44;6.80;73.40
48208;DHT22;33997;53.278;9.708;2023-02-04T13:25:09;6.70;73.30
48208;DHT22;33997;53.278;9.708;2023-02-04T13:27:36;6.70;74.00
48208;DHT22;33997;53.278;9.708;2023-02-04T13:30:06;6.70;72.90
48208;DHT22;33997;53.278;9.708;2023-02-04T13:32:33;6.90;74.20
48208;DHT22;33997;53.278;9.708;2023-02-04T13:34:59;6.90;73.40
48208;DHT22;33997;53.278;9.708;2023-02-04T13:37:24;7.00;74.50
48208;DHT22;33997;53.278;9.708;2023-02-04T13:39:50;6.90;72.60
48208;DHT22;33997;53.278;9.708;2023-02-04T13:42:15;7.00;72.10
48208;DHT22;33997;53.278;9.708;2023-02-04T13:44:41;7.10;72.20
48208;DHT22;33997;53.278;9.708;2023-02-04T13:47:06;7.00;73.00
48208;DHT22;33997;53.278;9.708;2023-02-04T13:49:32;7.00;72.40
48208;DHT22;33997;53.278;9.708;2023-02-04T13:51:57;6.90;74.10
48208;DHT22;33997;53.278;9.708;2023-02-04T13:54:23;6.70;74.10
48208;DHT22;33997;53.278;9.708;2023-02-04T13:56:49;6.30;71.10
48208;DHT22;33997;53.278;9.708;2023-02-04T13:59:14;6.30;71.10
48208;DHT22;33997;53.278;9.708;2023-02-04T14:01:40;6.50;70.70
48208;DHT22;33997;53.278;9.708;2023-02-04T14:04:05;6.80;73.90
48208;DHT22;33997;53.278;9.708;2023-02-04T14:06:31;6.70;71.50
48208;DHT22;33997;53.278;9.708;2023-02-04T14:09:03;6.50;70.50
48208;DHT22;33997;53.278;9.708;2023-02-04T14:11:28;6.80;73.00
48208;DHT22;33997;53.278;9.708;2023-02-04T14:13:54;6.80;72.90
48208;DHT22;33997;53.278;9.708;2023-02-04T14:16:20;7.00;72.40
48208;DHT22;33997;53.278;9.708;2023-02-04T14:18:45;6.60;70.20
48208;DHT22;33997;53.278;9.708;2023-02-04T14:21:11;6.70;73.50
48208;DHT22;33997;53.278;9.708;2023-02-04T14:23:36;6.70;72.70
48208;DHT22;33997;53.278;9.708;2023-02-04T14:26:02;6.50;71.80
48208;DHT22;33997;53.278;9.708;2023-02-04T14:28:28;6.30;70.90
48208;DHT22;33997;53.278;9.708;2023-02-04T14:30:53;6.20;71.70
48208;DHT22;33997;53.278;9.708;2023-02-04T14:33:19;6.40;74.00
48208;DHT22;33997;53.278;9.708;2023-02-04T14:35:45;6.50;73.40
48208;DHT22;33997;53.278;9.708;2023-02-04T14:38:10;6.40;71.00
48208;DHT22;33997;53.278;9.708;2023-02-04T14:40:37;6.50;72.40
48208;DHT22;33997;53.278;9.708;2023-02-04T14:43:03;6.20;71.40
48208;DHT22;33997;53.278;9.708;2023-02-04T14:45:28;6.10;71.90
48208;DHT22;33997;53.278;9.708;2023-02-04T14:47:53;5.80;72.20
48208;DHT22;33997;53.278;9.708;2023-02-04T14:50:21;6.00;74.20
48208;DHT22;33997;53.278;9.708;2023-02-04T14:52:54;5.80;72.80
48208;DHT22;33997;53.278;9.708;2023-02-04T14:55:24;5.80;76.00
48208;DHT22;33997;53.278;9.708;2023-02-04T14:57:49;5.80;76.30
48208;DHT22;33997;53.278;9.708;2023-02-04T15:00:16;5.60;76.40
48208;DHT22;33997;53.278;9.708;2023-02-04T15:02:41;5.60;78.90
48208;DHT22;33997;53.278;9.708;2023-02-04T15:05:08;5.40;78.20
48208;DHT22;33997;53.278;9.708;2023-02-04T15:07:34;5.30;79.90
48208;DHT22;33997;53.278;9.708;2023-02-04T15:10:00;5.00;80.50
48208;DHT22;33997;53.278;9.708;2023-02-04T15:12:25;4.80;81.90
48208;DHT22;33997;53.278;9.708;2023-02-04T15:14:51;4.60;82.30
48208;DHT22;33997;53.278;9.708;2023-02-04T15:17:16;4.40;84.40
48208;DHT22;33997;53.278;9.708;2023-02-04T15:19:43;4.20;83.80
48208;DHT22;33997;53.278;9.708;2023-02-04T15:22:09;4.00;83.00
48208;DHT22;33997;53.278;9.708;2023-02-04T15:24:34;4.00;83.70
48208;DHT22;33997;53.278;9.708;2023-02-04T15:27:00;3.90;84.90
48208;DHT22;33997;53.278;9.708;2023-02-04T15:29:25;3.90;85.30
48208;DHT22;33997;53.278;9.708;2023-02-04T15:31:51;3.80;86.10
48208;DHT22;33997;53.278;9.708;2023-02-04T15:34:16;3.80;86.10
48208;DHT22;33997;53.278;9.708;2023-02-04T15:36:42;3.70;86.90
48208;DHT22;33997;53.278;9.708;2023-02-04T15:39:07;3.70;85.30
48208;DHT22;33997;53.278;9.708;2023-02-04T15:41:32;3.60;84.70
48208;DHT22;33997;53.278;9.708;2023-02-04T15:43:58;3.60;85.80
48208;DHT22;33997;53.278;9.708;2023-02-04T15:46:24;3.60;85.90
48208;DHT22;33997;53.278;9.708;2023-02-04T15:48:50;3.50;85.90
48208;DHT22;33997;53.278;9.708;2023-02-04T15:51:15;3.40;85.90
48208;DHT22;33997;53.278;9.708;2023-02-04T15:53:41;3.40;85.90